Nain, Canada
Current Conditions -  °F | °C
As of 8:00 PM on Saturday 25 Oct 2014 (Local Time) from CYDP Reporting Station
Overcast Overcast  
Wind Chill: 25°   Ceiling: 2000
Heat Index: 34°   Visibility: 15mi
Dew Point: 27°   Wind: 12mph
Humidity: 75%   Direction: 150°SSE
Pressure: 29.93"   Gusts: NA
Location:  56.55°N, 61.68°W
Report Text: CYDP 252300Z 15010KT 15SM OVC020 01/M03 A2993 RMK SC8 LASTSTAFFED OB/ NEXT 250800 SLP134
Loading
Personal Weather Stations






























Interactive Weather Map
Tropical Storm Tracking
New forecast layout! Learn more

10-Day Weather Forecast

Advertisements
Track Severe Weather on mobile